createdAt,value
2016-12-17T00:00:20.997Z,22.8
2016-12-17T00:01:24.440Z,22.8
2016-12-17T00:02:27.899Z,22.81
2016-12-17T00:03:31.361Z,22.7
2016-12-17T00:04:34.803Z,22.72
2016-12-17T00:05:38.261Z,22.78
2016-12-17T00:06:41.718Z,22.78
2016-12-17T00:07:45.166Z,22.84
2016-12-17T00:08:48.621Z,22.78
2016-12-17T00:09:52.081Z,22.78
2016-12-17T00:10:55.525Z,22.81
2016-12-17T00:11:58.978Z,22.78
2016-12-17T00:13:02.435Z,22.8
2016-12-17T00:14:05.887Z,22.76
2016-12-17T00:15:09.341Z,22.81
2016-12-17T00:16:12.795Z,22.78
2016-12-17T00:17:16.249Z,22.87
2016-12-17T00:18:19.696Z,22.81
2016-12-17T00:19:23.144Z,22.81
2016-12-17T00:20:26.588Z,22.73
2016-12-17T00:21:30.041Z,22.81
2016-12-17T00:22:33.485Z,22.76
2016-12-17T00:23:36.938Z,22.78
2016-12-17T00:24:40.392Z,22.68
2016-12-17T00:25:43.846Z,22.8
2016-12-17T00:26:47.299Z,22.75
2016-12-17T00:27:50.753Z,22.68
2016-12-17T00:28:54.208Z,22.78
2016-12-17T00:29:57.654Z,22.83
2016-12-17T00:31:01.103Z,22.81
2016-12-17T00:32:04.547Z,22.8
2016-12-17T00:33:08.005Z,22.72
2016-12-17T00:34:11.451Z,22.8
2016-12-17T00:35:14.900Z,22.75
2016-12-17T00:36:18.359Z,22.75
2016-12-17T00:37:21.805Z,22.65
2016-12-17T00:38:25.257Z,22.81
2016-12-17T00:39:28.703Z,22.78
2016-12-17T00:40:32.158Z,22.76
2016-12-17T00:41:35.613Z,22.72
2016-12-17T00:42:39.062Z,22.73
2016-12-17T00:43:42.504Z,22.78
2016-12-17T00:44:45.958Z,22.68
2016-12-17T00:45:49.403Z,22.72
2016-12-17T00:46:52.861Z,22.72
2016-12-17T00:47:56.320Z,22.8
2016-12-17T00:48:59.765Z,22.7
2016-12-17T00:50:03.223Z,22.73
2016-12-17T00:51:06.685Z,22.78
2016-12-17T00:52:10.126Z,22.76
2016-12-17T00:53:13.577Z,22.7
2016-12-17T00:54:17.032Z,22.68
2016-12-17T00:55:20.487Z,22.66
2016-12-17T00:56:23.940Z,22.8
2016-12-17T00:57:27.395Z,22.8
2016-12-17T00:58:30.849Z,22.7
2016-12-17T00:59:34.302Z,22.69
2016-12-17T01:00:37.756Z,22.72
2016-12-17T01:01:41.210Z,22.73
2016-12-17T01:02:44.664Z,22.78
2016-12-17T01:03:48.134Z,22.8
2016-12-17T01:04:51.586Z,22.7
2016-12-17T01:05:55.029Z,22.78
2016-12-17T01:06:58.488Z,22.72
2016-12-17T01:08:01.935Z,22.65
2016-12-17T01:09:05.393Z,22.75
2016-12-17T01:10:08.853Z,22.69
2016-12-17T01:11:12.297Z,22.8
2016-12-17T01:12:15.754Z,22.84
2016-12-17T01:13:19.213Z,22.73
2016-12-17T01:14:22.657Z,22.75
2016-12-17T01:15:26.108Z,22.8
2016-12-17T01:16:29.565Z,22.69
2016-12-17T01:17:33.018Z,22.8
2016-12-17T01:18:36.472Z,22.69
2016-12-17T01:19:39.925Z,22.8
2016-12-17T01:20:43.379Z,22.72
2016-12-17T01:21:46.832Z,22.69
2016-12-17T01:22:50.287Z,22.75
2016-12-17T01:23:53.740Z,22.7
2016-12-17T01:24:57.194Z,22.75
2016-12-17T01:26:00.649Z,22.76
2016-12-17T01:27:04.101Z,22.7
2016-12-17T01:28:07.555Z,22.65
2016-12-17T01:29:11.011Z,22.72
2016-12-17T01:30:14.463Z,22.68
2016-12-17T01:31:17.916Z,22.69
2016-12-17T01:32:21.376Z,22.78
2016-12-17T01:33:24.825Z,22.72
2016-12-17T01:34:28.279Z,22.65
2016-12-17T01:35:31.734Z,22.7
2016-12-17T01:36:35.186Z,22.76
2016-12-17T01:37:38.639Z,22.7
2016-12-17T01:38:42.094Z,22.73
2016-12-17T01:39:45.550Z,22.66
2016-12-17T01:40:49.001Z,22.75
2016-12-17T01:41:52.456Z,22.7
2016-12-17T01:42:55.909Z,22.68
2016-12-17T01:43:59.362Z,22.7
2016-12-17T01:45:02.817Z,22.65
2016-12-17T01:46:06.270Z,22.66
2016-12-17T01:47:09.723Z,22.7
2016-12-17T01:48:13.173Z,22.73
2016-12-17T01:49:16.632Z,22.66
2016-12-17T01:50:20.085Z,22.63
2016-12-17T01:51:23.539Z,22.66
2016-12-17T01:52:26.994Z,22.68
2016-12-17T01:53:30.445Z,22.7
2016-12-17T01:54:33.903Z,22.68
2016-12-17T01:55:37.355Z,22.65
2016-12-17T01:56:40.809Z,22.72
2016-12-17T01:57:44.264Z,22.62
2016-12-17T01:58:47.716Z,22.62
2016-12-17T01:59:51.170Z,22.63
2016-12-17T02:00:54.625Z,22.72
2016-12-17T02:01:58.078Z,22.63
2016-12-17T02:03:01.531Z,22.68
2016-12-17T02:04:04.986Z,22.6
2016-12-17T02:05:08.439Z,22.6
2016-12-17T02:06:11.887Z,22.63
2016-12-17T02:07:15.336Z,22.63
2016-12-17T02:08:18.779Z,22.63
2016-12-17T02:09:22.237Z,22.68
2016-12-17T02:10:25.685Z,22.68
2016-12-17T02:11:29.134Z,22.68
2016-12-17T02:12:32.595Z,22.62
2016-12-17T02:13:36.040Z,22.66
2016-12-17T02:14:39.495Z,22.68
2016-12-17T02:15:42.953Z,22.68
2016-12-17T02:16:46.400Z,22.66
2016-12-17T02:17:49.852Z,22.65
2016-12-17T02:18:53.297Z,22.68
2016-12-17T02:19:56.743Z,22.72
2016-12-17T02:21:00.192Z,22.57
2016-12-17T02:22:03.638Z,22.62
2016-12-17T02:23:07.092Z,22.6
2016-12-17T02:24:10.553Z,22.68
2016-12-17T02:25:13.997Z,22.62
2016-12-17T02:26:17.449Z,22.55
2016-12-17T02:27:20.909Z,22.66
2016-12-17T02:28:24.357Z,22.63
2016-12-17T02:29:27.810Z,22.62
2016-12-17T02:30:31.265Z,22.68
2016-12-17T02:31:34.711Z,22.63
2016-12-17T02:32:38.165Z,22.7
2016-12-17T02:33:41.613Z,22.62
2016-12-17T02:34:45.057Z,22.62
2016-12-17T02:35:48.513Z,22.62
2016-12-17T02:36:51.954Z,22.65
2016-12-17T02:37:55.412Z,22.62
2016-12-17T02:38:58.866Z,22.66
2016-12-17T02:40:02.316Z,22.68
2016-12-17T02:41:05.768Z,22.62
2016-12-17T02:42:09.212Z,22.59
2016-12-17T02:43:12.658Z,22.66
2016-12-17T02:44:16.112Z,22.63
2016-12-17T02:45:19.568Z,22.66
2016-12-17T02:46:23.008Z,22.62
2016-12-17T02:47:26.470Z,22.62
2016-12-17T02:48:29.912Z,22.66
2016-12-17T02:49:33.365Z,22.65
2016-12-17T02:50:36.820Z,22.7
2016-12-17T02:51:40.273Z,22.65
2016-12-17T02:52:43.727Z,22.59
2016-12-17T02:53:47.183Z,22.66
2016-12-17T02:54:50.635Z,22.69
2016-12-17T02:55:54.088Z,22.57
2016-12-17T02:56:57.546Z,22.62
2016-12-17T02:58:00.997Z,22.69
2016-12-17T02:59:04.450Z,22.62
2016-12-17T03:00:07.904Z,22.68
2016-12-17T03:01:11.358Z,22.72
2016-12-17T03:02:14.822Z,22.66
2016-12-17T03:03:18.266Z,22.72
2016-12-17T03:04:21.720Z,22.66
2016-12-17T03:05:25.167Z,22.63
2016-12-17T03:06:28.617Z,22.76
2016-12-17T03:07:32.057Z,22.62
2016-12-17T03:08:35.509Z,22.62
2016-12-17T03:09:38.956Z,22.6
2016-12-17T03:10:42.409Z,22.6
2016-12-17T03:11:45.869Z,22.66
2016-12-17T03:12:49.317Z,22.63
2016-12-17T03:13:52.770Z,22.57
2016-12-17T03:14:56.224Z,22.69
2016-12-17T03:15:59.679Z,22.63
2016-12-17T03:17:03.131Z,22.62
2016-12-17T03:18:06.591Z,22.7
2016-12-17T03:19:10.040Z,22.65
2016-12-17T03:20:13.493Z,22.65
2016-12-17T03:21:16.948Z,22.66
2016-12-17T03:22:20.401Z,22.66
2016-12-17T03:23:23.855Z,22.63
2016-12-17T03:24:27.311Z,22.6
2016-12-17T03:25:30.763Z,22.6
2016-12-17T03:26:34.216Z,22.65
2016-12-17T03:27:37.674Z,22.7
2016-12-17T03:28:41.125Z,22.66
2016-12-17T03:29:44.578Z,22.62
2016-12-17T03:30:48.031Z,22.63
2016-12-17T03:31:51.491Z,22.6
2016-12-17T03:32:54.940Z,22.68
2016-12-17T03:33:58.395Z,22.62
2016-12-17T03:35:01.850Z,22.62
2016-12-17T03:36:05.302Z,22.62
2016-12-17T03:37:08.756Z,22.63
2016-12-17T03:38:12.210Z,22.65
2016-12-17T03:39:15.664Z,22.68
2016-12-17T03:40:19.118Z,22.63
2016-12-17T03:41:22.572Z,22.63
2016-12-17T03:42:26.027Z,22.59
2016-12-17T03:43:29.480Z,22.65
2016-12-17T03:44:32.934Z,22.65
2016-12-17T03:45:36.387Z,22.63
2016-12-17T03:46:39.841Z,22.62
2016-12-17T03:47:43.296Z,22.6
2016-12-17T03:48:46.749Z,22.68
2016-12-17T03:49:50.203Z,22.6
2016-12-17T03:50:53.657Z,22.63
2016-12-17T03:51:57.111Z,22.62
2016-12-17T03:53:00.566Z,22.63
2016-12-17T03:54:04.019Z,22.63
2016-12-17T03:55:07.472Z,22.6
2016-12-17T03:56:10.928Z,22.65
2016-12-17T03:57:14.381Z,22.63
2016-12-17T03:58:17.828Z,22.6
2016-12-17T03:59:21.276Z,22.65
2016-12-17T04:00:24.720Z,22.57
2016-12-17T04:01:28.179Z,22.62
2016-12-17T04:02:31.634Z,22.6
2016-12-17T04:03:35.076Z,22.55
2016-12-17T04:04:38.535Z,22.7
2016-12-17T04:05:41.979Z,22.62
2016-12-17T04:06:45.437Z,22.59
2016-12-17T04:07:48.898Z,22.6
2016-12-17T04:08:52.341Z,22.6
2016-12-17T04:09:55.793Z,22.65
2016-12-17T04:10:59.248Z,22.66
2016-12-17T04:12:02.701Z,22.62
2016-12-17T04:13:06.155Z,22.62
2016-12-17T04:14:09.610Z,22.62
2016-12-17T04:15:13.063Z,22.55
2016-12-17T04:16:16.515Z,22.55
2016-12-17T04:17:19.972Z,22.62
2016-12-17T04:18:23.425Z,22.57
2016-12-17T04:19:26.878Z,22.6
2016-12-17T04:20:30.334Z,22.63
2016-12-17T04:21:33.787Z,22.55
2016-12-17T04:22:37.240Z,22.63
2016-12-17T04:23:40.696Z,22.57
2016-12-17T04:24:44.149Z,22.59
2016-12-17T04:25:47.602Z,22.65
2016-12-17T04:26:51.057Z,22.57
2016-12-17T04:27:54.510Z,22.59
2016-12-17T04:28:57.963Z,22.59
2016-12-17T04:30:01.419Z,22.51
2016-12-17T04:31:04.872Z,22.6
2016-12-17T04:32:08.326Z,22.55
2016-12-17T04:33:11.779Z,22.51
2016-12-17T04:34:15.234Z,22.6
2016-12-17T04:35:18.688Z,22.7
2016-12-17T04:36:22.143Z,22.6
2016-12-17T04:37:25.596Z,22.65
2016-12-17T04:38:29.049Z,22.69
2016-12-17T04:39:32.504Z,22.57
2016-12-17T04:40:35.958Z,22.54
2016-12-17T04:41:39.410Z,22.55
2016-12-17T04:42:42.868Z,22.6
2016-12-17T04:43:46.319Z,22.63
2016-12-17T04:44:49.773Z,22.59
2016-12-17T04:45:53.227Z,22.59
2016-12-17T04:46:56.681Z,22.55
2016-12-17T04:48:00.134Z,22.66
2016-12-17T04:49:03.593Z,22.6
2016-12-17T04:50:07.043Z,22.62
2016-12-17T04:51:10.496Z,22.62
2016-12-17T04:52:13.954Z,22.66
2016-12-17T04:53:17.405Z,22.59
2016-12-17T04:54:20.858Z,22.59
2016-12-17T04:55:24.313Z,22.59
2016-12-17T04:56:27.766Z,22.62
2016-12-17T04:57:31.219Z,22.57
2016-12-17T04:58:34.677Z,22.59
2016-12-17T04:59:38.128Z,22.53
2016-12-17T05:00:41.582Z,22.66
2016-12-17T05:01:45.036Z,22.6
2016-12-17T05:02:48.490Z,22.6
2016-12-17T05:03:51.943Z,22.62
2016-12-17T05:04:55.398Z,22.66
2016-12-17T05:05:58.852Z,22.57
2016-12-17T05:07:02.305Z,22.54
2016-12-17T05:08:05.760Z,22.62
2016-12-17T05:09:09.213Z,22.59
2016-12-17T05:10:12.665Z,22.62
2016-12-17T05:11:16.122Z,22.55
2016-12-17T05:12:19.575Z,22.63
2016-12-17T05:13:23.029Z,22.6
2016-12-17T05:14:26.483Z,22.51
2016-12-17T05:15:29.937Z,22.63
2016-12-17T05:16:33.390Z,22.63
2016-12-17T05:17:36.850Z,22.48
2016-12-17T05:18:40.299Z,22.6
2016-12-17T05:19:43.752Z,22.53
2016-12-17T05:20:47.209Z,22.54
2016-12-17T05:21:50.660Z,22.55
2016-12-17T05:22:54.107Z,22.59
2016-12-17T05:23:57.555Z,22.51
2016-12-17T05:25:01.003Z,22.53
2016-12-17T05:26:04.455Z,22.54
2016-12-17T05:27:07.901Z,22.51
2016-12-17T05:28:11.355Z,22.54
2016-12-17T05:29:14.812Z,22.62
2016-12-17T05:30:18.257Z,22.57
2016-12-17T05:31:21.704Z,22.6
2016-12-17T05:32:25.153Z,22.55
2016-12-17T05:33:28.597Z,22.63
2016-12-17T05:34:32.052Z,22.55
2016-12-17T05:35:35.508Z,22.59
2016-12-17T05:36:38.951Z,22.65
2016-12-17T05:37:42.411Z,22.59
2016-12-17T05:38:45.856Z,22.53
2016-12-17T05:39:49.308Z,22.6
2016-12-17T05:40:52.763Z,22.57
2016-12-17T05:41:56.217Z,22.5
2016-12-17T05:42:59.670Z,22.54
2016-12-17T05:44:03.124Z,22.59
2016-12-17T05:45:06.578Z,22.6
2016-12-17T05:46:10.028Z,22.53
2016-12-17T05:47:13.479Z,22.55
2016-12-17T05:48:16.918Z,22.55
2016-12-17T05:49:20.373Z,22.54
2016-12-17T05:50:23.816Z,22.54
2016-12-17T05:51:27.267Z,22.5
2016-12-17T05:52:30.713Z,22.53
2016-12-17T05:53:34.176Z,22.51
2016-12-17T05:54:37.622Z,22.51
2016-12-17T05:55:41.073Z,22.51
2016-12-17T05:56:44.515Z,22.53
2016-12-17T05:57:47.970Z,22.59
2016-12-17T05:58:51.414Z,22.59
2016-12-17T05:59:54.871Z,22.59
2016-12-17T06:00:58.329Z,22.53
2016-12-17T06:02:01.779Z,22.54
2016-12-17T06:03:05.230Z,22.6
2016-12-17T06:04:08.692Z,22.62
2016-12-17T06:05:12.136Z,22.5
2016-12-17T06:06:15.593Z,22.5
2016-12-17T06:07:19.056Z,22.59
2016-12-17T06:08:22.497Z,22.48
2016-12-17T06:09:25.950Z,22.6
2016-12-17T06:10:29.405Z,22.55
2016-12-17T06:11:32.858Z,22.53
2016-12-17T06:12:36.311Z,22.62
2016-12-17T06:13:39.769Z,22.53
2016-12-17T06:14:43.220Z,22.59
2016-12-17T06:15:46.673Z,22.54
2016-12-17T06:16:50.128Z,22.59
2016-12-17T06:17:53.583Z,22.55
2016-12-17T06:18:57.028Z,22.57
2016-12-17T06:20:00.477Z,22.59
2016-12-17T06:21:03.925Z,22.57
2016-12-17T06:22:07.376Z,22.59
2016-12-17T06:23:10.825Z,22.51
2016-12-17T06:24:14.276Z,22.59
2016-12-17T06:25:17.733Z,22.55
2016-12-17T06:26:21.179Z,22.55
2016-12-17T06:27:24.632Z,22.55
2016-12-17T06:28:28.085Z,22.5
2016-12-17T06:29:31.540Z,22.53
2016-12-17T06:30:34.994Z,22.55
2016-12-17T06:31:38.449Z,22.53
2016-12-17T06:32:41.902Z,22.54
2016-12-17T06:33:45.357Z,22.55
2016-12-17T06:34:48.811Z,22.59
2016-12-17T06:35:52.264Z,22.51
2016-12-17T06:36:55.717Z,22.44
2016-12-17T06:37:59.171Z,22.47
2016-12-17T06:39:02.627Z,22.43
2016-12-17T06:40:06.071Z,22.43
2016-12-17T06:41:09.520Z,22.54
2016-12-17T06:42:12.962Z,22.51
2016-12-17T06:43:16.419Z,22.44
2016-12-17T06:44:19.863Z,22.55
2016-12-17T06:45:23.319Z,22.54
2016-12-17T06:46:26.780Z,22.47
2016-12-17T06:47:30.224Z,22.54
2016-12-17T06:48:33.678Z,22.47
2016-12-17T06:49:37.141Z,22.59
2016-12-17T06:50:40.586Z,22.53
2016-12-17T06:51:44.038Z,22.51
2016-12-17T06:52:47.493Z,22.48
2016-12-17T06:53:50.946Z,22.48
2016-12-17T06:54:54.399Z,22.5
2016-12-17T06:55:57.855Z,22.51
2016-12-17T06:57:01.308Z,22.48
2016-12-17T06:58:04.761Z,22.51
2016-12-17T06:59:08.217Z,22.48
2016-12-17T07:00:11.671Z,22.51
2016-12-17T07:01:15.123Z,22.59
2016-12-17T07:02:18.578Z,22.54
2016-12-17T07:03:22.031Z,22.51
2016-12-17T07:04:25.479Z,22.43
2016-12-17T07:05:28.927Z,22.51
2016-12-17T07:06:32.370Z,22.48
2016-12-17T07:07:35.824Z,22.5
2016-12-17T07:08:39.268Z,22.51
2016-12-17T07:09:42.727Z,22.51
2016-12-17T07:10:46.184Z,22.53
2016-12-17T07:11:49.629Z,22.48
2016-12-17T07:12:53.082Z,22.53
2016-12-17T07:13:56.543Z,22.45
2016-12-17T07:14:59.990Z,22.55
2016-12-17T07:16:03.443Z,22.51
2016-12-17T07:17:06.888Z,22.47
2016-12-17T07:18:10.332Z,22.53
2016-12-17T07:19:13.787Z,22.5
2016-12-17T07:20:17.232Z,22.54
2016-12-17T07:21:20.686Z,22.51
2016-12-17T07:22:24.144Z,22.5
2016-12-17T07:23:27.588Z,22.43
2016-12-17T07:24:31.041Z,22.55
2016-12-17T07:25:34.496Z,22.48
2016-12-17T07:26:37.950Z,22.48
2016-12-17T07:27:41.403Z,22.48
2016-12-17T07:28:44.858Z,22.54
2016-12-17T07:29:48.311Z,22.51
2016-12-17T07:30:51.763Z,22.55
2016-12-17T07:31:55.219Z,22.47
2016-12-17T07:32:58.673Z,22.5
2016-12-17T07:34:02.127Z,22.53
2016-12-17T07:35:05.568Z,22.5
2016-12-17T07:36:09.010Z,22.45
2016-12-17T07:37:12.463Z,22.54
2016-12-17T07:38:15.908Z,22.55
2016-12-17T07:39:19.361Z,22.54
2016-12-17T07:40:22.822Z,22.54
2016-12-17T07:41:26.270Z,22.55
2016-12-17T07:42:29.717Z,22.48
2016-12-17T07:43:33.166Z,22.55
2016-12-17T07:44:36.610Z,22.51
2016-12-17T07:45:40.068Z,22.59
2016-12-17T07:46:43.515Z,22.55
2016-12-17T07:47:46.962Z,22.55
2016-12-17T07:48:50.425Z,22.53
2016-12-17T07:49:53.873Z,22.43
2016-12-17T07:50:57.323Z,22.43
2016-12-17T07:52:00.789Z,22.55
2016-12-17T07:53:04.230Z,22.43
2016-12-17T07:54:07.689Z,22.55
2016-12-17T07:55:11.148Z,22.59
2016-12-17T07:56:14.592Z,22.5
2016-12-17T07:57:18.042Z,22.55
2016-12-17T07:58:21.499Z,22.57
2016-12-17T07:59:24.952Z,22.55
2016-12-17T08:00:28.404Z,22.55
2016-12-17T08:01:31.864Z,22.57
2016-12-17T08:02:35.314Z,22.54
2016-12-17T08:03:38.766Z,22.57
2016-12-17T08:04:42.224Z,22.57
2016-12-17T08:05:45.676Z,22.5
2016-12-17T08:06:49.129Z,22.5
2016-12-17T08:07:52.584Z,22.55
2016-12-17T08:08:56.038Z,22.47
2016-12-17T08:09:59.490Z,22.48
2016-12-17T08:11:02.944Z,22.54
2016-12-17T08:12:06.399Z,22.48
2016-12-17T08:13:09.845Z,22.51
2016-12-17T08:14:13.295Z,22.51
2016-12-17T08:15:16.735Z,22.48
2016-12-17T08:16:20.189Z,22.48
2016-12-17T08:17:23.635Z,22.45
2016-12-17T08:18:27.088Z,22.55
2016-12-17T08:19:30.542Z,22.47
2016-12-17T08:20:33.996Z,22.44
2016-12-17T08:21:37.449Z,22.47
2016-12-17T08:22:40.909Z,22.48
2016-12-17T08:23:44.358Z,22.51
2016-12-17T08:24:47.812Z,22.54
2016-12-17T08:25:51.267Z,22.5
2016-12-17T08:26:54.719Z,22.54
2016-12-17T08:27:58.172Z,22.43
2016-12-17T08:29:01.628Z,22.53
2016-12-17T08:30:05.081Z,22.43
2016-12-17T08:31:08.535Z,22.53
2016-12-17T08:32:11.988Z,22.5
2016-12-17T08:33:15.443Z,22.54
2016-12-17T08:34:18.896Z,22.43
2016-12-17T08:35:22.351Z,22.5
2016-12-17T08:36:25.805Z,22.41
2016-12-17T08:37:29.258Z,22.44
2016-12-17T08:38:32.712Z,22.45
2016-12-17T08:39:36.166Z,22.59
2016-12-17T08:40:39.620Z,22.53
2016-12-17T08:41:43.075Z,22.48
2016-12-17T08:42:46.528Z,22.48
2016-12-17T08:43:49.982Z,22.48
2016-12-17T08:44:53.441Z,22.53
2016-12-17T08:45:56.891Z,22.55
2016-12-17T08:47:00.343Z,22.55
2016-12-17T08:48:03.787Z,22.51
2016-12-17T08:49:07.232Z,22.51
2016-12-17T08:50:10.687Z,22.51
2016-12-17T08:51:14.140Z,22.55
2016-12-17T08:52:17.588Z,22.55
2016-12-17T08:53:21.044Z,22.55
2016-12-17T08:54:24.488Z,22.45
2016-12-17T08:55:27.946Z,22.57
2016-12-17T08:56:31.406Z,22.53
2016-12-17T08:57:34.849Z,22.54
2016-12-17T08:58:38.302Z,22.54
2016-12-17T08:59:41.758Z,22.54
2016-12-17T09:00:45.210Z,22.54
2016-12-17T09:01:48.656Z,22.45
2016-12-17T09:02:52.106Z,22.6
2016-12-17T09:03:55.550Z,22.53
2016-12-17T09:04:59.006Z,22.45
2016-12-17T09:06:02.450Z,22.5
2016-12-17T09:07:05.904Z,22.63
2016-12-17T09:08:09.363Z,22.54
2016-12-17T09:09:12.807Z,22.53
2016-12-17T09:10:16.260Z,22.51
2016-12-17T09:11:19.716Z,22.45
2016-12-17T09:12:23.169Z,22.53
2016-12-17T09:13:26.622Z,22.54
2016-12-17T09:14:30.077Z,22.53
2016-12-17T09:15:33.531Z,22.53
2016-12-17T09:16:36.976Z,22.53
2016-12-17T09:17:40.423Z,22.57
2016-12-17T09:18:43.868Z,22.51
2016-12-17T09:19:47.323Z,22.59
2016-12-17T09:20:50.767Z,22.54
2016-12-17T09:21:54.226Z,22.54
2016-12-17T09:22:57.685Z,22.63
2016-12-17T09:24:01.129Z,22.65
2016-12-17T09:25:04.587Z,22.65
2016-12-17T09:26:08.047Z,22.66
2016-12-17T09:27:11.490Z,22.63
2016-12-17T09:28:14.947Z,22.63
2016-12-17T09:29:18.408Z,22.6
2016-12-17T09:30:21.855Z,22.63
2016-12-17T09:31:25.310Z,22.62
2016-12-17T09:32:28.768Z,22.59
2016-12-17T09:33:32.213Z,22.6
2016-12-17T09:34:35.671Z,22.63
2016-12-17T09:35:39.131Z,22.59
2016-12-17T09:36:42.575Z,22.63
2016-12-17T09:37:46.026Z,22.62
2016-12-17T09:38:49.482Z,22.63
2016-12-17T09:39:52.936Z,22.66
2016-12-17T09:40:56.387Z,22.65
2016-12-17T09:41:59.848Z,22.63
2016-12-17T09:43:03.297Z,22.59
2016-12-17T09:44:06.751Z,22.68
2016-12-17T09:45:10.206Z,22.63
2016-12-17T09:46:13.659Z,22.62
2016-12-17T09:47:17.106Z,22.6
2016-12-17T09:48:20.554Z,22.62
2016-12-17T09:49:23.999Z,22.63
2016-12-17T09:50:27.454Z,22.62
2016-12-17T09:51:30.896Z,22.62
2016-12-17T09:52:34.354Z,22.59
2016-12-17T09:53:37.815Z,22.62
2016-12-17T09:54:41.258Z,22.6
2016-12-17T09:55:44.716Z,22.62
2016-12-17T09:56:48.173Z,22.57
2016-12-17T09:57:51.618Z,22.65
2016-12-17T09:58:55.070Z,22.66
2016-12-17T09:59:58.529Z,22.59
2016-12-17T10:01:01.980Z,22.57
2016-12-17T10:02:05.433Z,22.6
2016-12-17T10:03:08.889Z,22.63
2016-12-17T10:04:12.342Z,22.59
2016-12-17T10:05:15.793Z,22.66
2016-12-17T10:06:19.249Z,22.62
2016-12-17T10:07:22.703Z,22.68
2016-12-17T10:08:26.154Z,22.54
2016-12-17T10:09:30.216Z,22.62
2016-12-17T10:10:57.873Z,22.62
2016-12-17T10:12:01.313Z,22.63
2016-12-17T10:13:04.767Z,22.65
2016-12-17T10:14:08.227Z,22.66
2016-12-17T10:15:11.665Z,22.65
2016-12-17T10:16:15.124Z,22.65
2016-12-17T10:17:18.571Z,22.65
2016-12-17T10:18:22.022Z,22.66
2016-12-17T10:19:25.476Z,22.69
2016-12-17T10:20:28.931Z,22.6
2016-12-17T10:21:32.377Z,22.62
2016-12-17T10:22:35.826Z,22.62
2016-12-17T10:23:39.267Z,22.55
2016-12-17T10:24:42.724Z,22.73
2016-12-17T10:25:46.166Z,22.66
2016-12-17T10:26:49.620Z,22.68
2016-12-17T10:27:53.077Z,22.62
2016-12-17T10:28:56.528Z,22.66
2016-12-17T10:29:59.979Z,22.69
2016-12-17T10:31:03.435Z,22.76
2016-12-17T10:32:06.890Z,22.73
2016-12-17T10:33:10.343Z,22.76
2016-12-17T10:34:13.797Z,22.69
2016-12-17T10:35:17.251Z,22.7
2016-12-17T10:36:20.705Z,22.69
2016-12-17T10:37:24.163Z,22.75
2016-12-17T10:38:27.613Z,22.69
2016-12-17T10:39:31.065Z,22.68
2016-12-17T10:40:34.522Z,22.76
2016-12-17T10:41:37.974Z,22.78
2016-12-17T10:42:41.428Z,22.83
2016-12-17T10:43:44.882Z,22.8
2016-12-17T10:44:48.336Z,22.72
2016-12-17T10:45:51.792Z,22.8
2016-12-17T10:46:55.233Z,22.75
2016-12-17T10:47:58.688Z,22.8
2016-12-17T10:49:02.145Z,22.73
2016-12-17T10:50:05.592Z,22.78
2016-12-17T10:51:09.034Z,22.87
2016-12-17T10:52:12.489Z,22.88
2016-12-17T10:53:15.934Z,22.83
2016-12-17T10:54:19.388Z,22.8
2016-12-17T10:55:22.840Z,22.78
2016-12-17T10:56:26.295Z,22.85
2016-12-17T10:57:29.747Z,22.88
2016-12-17T10:58:33.202Z,22.8
2016-12-17T10:59:36.657Z,22.88
2016-12-17T11:00:40.110Z,22.81
2016-12-17T11:01:43.564Z,22.88
2016-12-17T11:02:47.018Z,22.88
2016-12-17T11:03:50.471Z,22.91
2016-12-17T11:04:53.916Z,22.78
2016-12-17T11:05:57.361Z,22.84
2016-12-17T11:07:00.814Z,22.87
2016-12-17T11:08:04.262Z,22.91
2016-12-17T11:09:07.711Z,22.9
2016-12-17T11:10:11.173Z,22.84
2016-12-17T11:11:14.615Z,22.85
2016-12-17T11:12:18.067Z,22.87
2016-12-17T11:13:21.523Z,22.88
2016-12-17T11:14:24.977Z,22.83
2016-12-17T11:15:28.431Z,22.83
2016-12-17T11:16:31.885Z,22.94
2016-12-17T11:17:35.339Z,22.91
2016-12-17T11:18:38.789Z,22.93
2016-12-17T11:19:42.232Z,22.98
2016-12-17T11:20:45.671Z,22.98
2016-12-17T11:21:49.130Z,22.88
2016-12-17T11:22:52.574Z,22.98
2016-12-17T11:23:56.022Z,22.84
2016-12-17T11:24:59.486Z,22.96
2016-12-17T11:26:02.935Z,23
2016-12-17T11:27:06.389Z,23.03
2016-12-17T11:28:09.844Z,22.88
2016-12-17T11:29:13.298Z,22.98
2016-12-17T11:30:16.750Z,22.98
2016-12-17T11:31:20.205Z,22.91
2016-12-17T11:32:23.659Z,23.02
2016-12-17T11:33:27.115Z,22.99
2016-12-17T11:34:30.569Z,23.05
2016-12-17T11:35:34.021Z,23
2016-12-17T11:36:37.474Z,23.03
2016-12-17T11:37:40.929Z,22.99
2016-12-17T11:38:44.383Z,23.05
2016-12-17T11:39:47.836Z,23.05
2016-12-17T11:40:51.291Z,23
2016-12-17T11:41:54.744Z,23.06
2016-12-17T11:42:58.200Z,23.02
2016-12-17T11:44:01.653Z,23.06
2016-12-17T11:45:05.105Z,22.93
2016-12-17T11:46:08.552Z,23
2016-12-17T11:47:12.000Z,22.93
2016-12-17T11:48:15.445Z,23.02
2016-12-17T11:49:18.897Z,23.03
2016-12-17T11:50:22.341Z,22.99
2016-12-17T11:51:25.794Z,23.03
2016-12-17T11:52:29.239Z,23
2016-12-17T11:53:32.694Z,22.83
2016-12-17T11:54:36.150Z,23.02
2016-12-17T11:55:39.598Z,23.02
2016-12-17T11:56:43.042Z,22.84
2016-12-17T11:57:46.499Z,22.98
2016-12-17T11:58:49.947Z,22.96
2016-12-17T11:59:53.396Z,22.93
2016-12-17T12:00:56.858Z,22.96
2016-12-17T12:02:00.300Z,22.93
2016-12-17T12:03:03.753Z,22.99
2016-12-17T12:04:07.208Z,22.96
2016-12-17T12:05:10.662Z,22.9
2016-12-17T12:06:14.115Z,23.06
2016-12-17T12:07:17.574Z,22.99
2016-12-17T12:08:21.023Z,23.03
2016-12-17T12:09:24.475Z,22.98
2016-12-17T12:10:27.931Z,23.03
2016-12-17T12:11:31.385Z,22.99
2016-12-17T12:12:34.838Z,23.05
2016-12-17T12:13:38.292Z,22.96
2016-12-17T12:14:41.746Z,22.94
2016-12-17T12:15:45.200Z,23.02
2016-12-17T12:16:48.655Z,22.93
2016-12-17T12:17:52.108Z,22.98
2016-12-17T12:18:55.562Z,22.9
2016-12-17T12:19:59.016Z,22.87
2016-12-17T12:21:02.470Z,22.99
2016-12-17T12:22:05.924Z,22.87
2016-12-17T12:23:09.383Z,22.94
2016-12-17T12:24:12.832Z,22.99
2016-12-17T12:25:16.285Z,23.02
2016-12-17T12:26:19.741Z,22.88
2016-12-17T12:27:23.193Z,23.02
2016-12-17T12:28:26.646Z,22.93
2016-12-17T12:29:30.101Z,22.93
2016-12-17T12:30:33.555Z,22.9
2016-12-17T12:31:37.008Z,22.96
2016-12-17T12:32:40.463Z,22.93
2016-12-17T12:33:43.919Z,22.9
2016-12-17T12:34:47.368Z,22.87
2016-12-17T12:35:50.823Z,23.05
2016-12-17T12:36:54.279Z,22.96
2016-12-17T12:37:57.729Z,23.05
2016-12-17T12:39:01.186Z,22.88
2016-12-17T12:40:04.640Z,23.05
2016-12-17T12:41:08.092Z,22.93
2016-12-17T12:42:11.550Z,22.9
2016-12-17T12:43:15.001Z,23.05
2016-12-17T12:44:18.455Z,22.9
2016-12-17T12:45:21.913Z,22.93
2016-12-17T12:46:25.362Z,22.99
2016-12-17T12:47:28.814Z,22.94
2016-12-17T12:48:32.273Z,22.99
2016-12-17T12:49:35.724Z,22.96
2016-12-17T12:50:39.177Z,22.96
2016-12-17T12:51:42.629Z,22.91
2016-12-17T12:52:46.085Z,22.96
2016-12-17T12:53:49.538Z,22.99
2016-12-17T12:54:52.993Z,22.9
2016-12-17T12:55:56.447Z,22.98
2016-12-17T12:56:59.900Z,23.05
2016-12-17T12:58:03.358Z,23.02
2016-12-17T12:59:06.808Z,22.96
2016-12-17T13:00:10.262Z,22.85
2016-12-17T13:01:13.719Z,22.96
2016-12-17T13:02:17.170Z,22.99
2016-12-17T13:03:20.617Z,22.91
2016-12-17T13:04:24.065Z,22.94
2016-12-17T13:05:27.516Z,22.85
2016-12-17T13:06:30.968Z,22.98
2016-12-17T13:07:34.414Z,22.98
2016-12-17T13:08:37.861Z,22.99
2016-12-17T13:09:41.324Z,22.99
2016-12-17T13:10:44.769Z,23
2016-12-17T13:11:48.227Z,22.83
2016-12-17T13:12:51.687Z,22.99
2016-12-17T13:13:55.150Z,23.02
2016-12-17T13:14:58.589Z,23.05
2016-12-17T13:16:02.047Z,23
2016-12-17T13:17:05.491Z,23.02
2016-12-17T13:18:08.942Z,23.02
2016-12-17T13:19:12.407Z,23.05
2016-12-17T13:20:15.853Z,23.06
2016-12-17T13:21:19.305Z,22.91
2016-12-17T13:22:22.759Z,23.06
2016-12-17T13:23:26.213Z,22.99
2016-12-17T13:24:29.667Z,22.9
2016-12-17T13:25:33.123Z,22.81
2016-12-17T13:26:36.576Z,23.02
2016-12-17T13:27:40.028Z,22.99
2016-12-17T13:28:43.489Z,23.03
2016-12-17T13:29:46.937Z,22.98
2016-12-17T13:30:50.383Z,22.98
2016-12-17T13:31:53.834Z,22.91
2016-12-17T13:32:57.278Z,22.98
2016-12-17T13:34:00.732Z,23.02
2016-12-17T13:35:04.181Z,22.94
2016-12-17T13:36:07.632Z,22.96
2016-12-17T13:37:11.090Z,22.93
2016-12-17T13:38:14.535Z,23.02
2016-12-17T13:39:17.987Z,23
2016-12-17T13:40:21.442Z,23.03
2016-12-17T13:41:24.895Z,22.93